Time;durP1;ratioP1;P1;durP2;ratioP2;P2;SDS_P1;SDS_P2;PMS_P1;PMS_P2;Temp;Humidity;BMP_temperature;BMP_pressure;BME280_temperature;BME280_humidity;BME280_pressure;Samples;Min_cycle;Max_cycle;Signal;HPM_P1;HPM_P2
2021/01/29 00:00:17;;;;;;;36.72;5.20;;;;;;;;;;5029454;28;20029;-70
2021/01/29 00:02:42;;;;;;;30.67;5.57;;;;;;;;;;5029621;28;20034;-70
2021/01/29 00:05:08;;;;;;;25.50;3.63;;;;;;;;;;5029161;28;20028;-70
2021/01/29 00:07:33;;;;;;;32.47;4.32;;;;;;;;;;5029350;28;20835;-69
2021/01/29 00:09:58;;;;;;;34.60;4.30;;;;;;;;;;5029885;28;20025;-70
2021/01/29 00:12:24;;;;;;;34.13;3.70;;;;;;;;;;5029109;28;20380;-70
2021/01/29 00:14:50;;;;;;;25.08;3.10;;;;;;;;;;5029216;28;20029;-70
2021/01/29 00:17:15;;;;;;;33.88;3.97;;;;;;;;;;5028806;28;20466;-69
2021/01/29 00:19:41;;;;;;;27.35;3.40;;;;;;;;;;5029369;28;20052;-69
2021/01/29 00:22:06;;;;;;;41.72;3.78;;;;;;;;;;5028981;28;20037;-70
2021/01/29 00:24:32;;;;;;;38.40;5.47;;;;;;;;;;5029705;28;20029;-70
2021/01/29 00:26:57;;;;;;;34.35;3.63;;;;;;;;;;5029176;28;20027;-70
2021/01/29 00:29:22;;;;;;;37.90;5.20;;;;;;;;;;5029035;28;20033;-70
2021/01/29 00:31:47;;;;;;;31.17;4.60;;;;;;;;;;5029276;28;20041;-70
2021/01/29 00:34:13;;;;;;;32.00;4.90;;;;;;;;;;5028801;28;20049;-70
2021/01/29 00:36:38;;;;;;;28.45;3.90;;;;;;;;;;5029321;28;20029;-70
2021/01/29 00:39:03;;;;;;;41.13;4.75;;;;;;;;;;5027601;28;20037;-70
2021/01/29 00:41:29;;;;;;;45.42;5.93;;;;;;;;;;5030138;28;20071;-70
2021/01/29 00:43:54;;;;;;;34.42;4.32;;;;;;;;;;5032691;28;20115;-70
2021/01/29 00:46:19;;;;;;;35.90;6.72;;;;;;;;;;5032792;28;20039;-70
2021/01/29 00:48:45;;;;;;;31.83;3.55;;;;;;;;;;5032876;28;20370;-69
2021/01/29 00:51:11;;;;;;;43.20;4.80;;;;;;;;;;5033565;28;20032;-70
2021/01/29 00:53:36;;;;;;;31.30;4.38;;;;;;;;;;5032509;28;20045;-69
2021/01/29 00:56:01;;;;;;;42.67;4.88;;;;;;;;;;5032688;28;20021;-70
2021/01/29 00:58:27;;;;;;;38.38;4.63;;;;;;;;;;5032794;28;20029;-70
2021/01/29 01:00:52;;;;;;;34.92;4.63;;;;;;;;;;5032978;28;21054;-71
2021/01/29 01:03:17;;;;;;;31.85;3.95;;;;;;;;;;5033108;28;20108;-69
2021/01/29 01:05:43;;;;;;;35.88;4.35;;;;;;;;;;5032577;28;20029;-70
2021/01/29 01:08:09;;;;;;;33.53;4.72;;;;;;;;;;5032860;28;20041;-70
2021/01/29 01:10:34;;;;;;;40.90;4.57;;;;;;;;;;5032479;28;20033;-70
2021/01/29 01:12:59;;;;;;;41.20;7.13;;;;;;;;;;5032970;28;20046;-70
2021/01/29 01:15:25;;;;;;;45.88;5.60;;;;;;;;;;5032818;28;20070;-69
2021/01/29 01:17:53;;;;;;;40.55;4.05;;;;;;;;;;5031620;28;20516;-70
2021/01/29 01:20:19;;;;;;;29.33;4.40;;;;;;;;;;5033188;28;20079;-70
2021/01/29 01:22:45;;;;;;;28.90;4.72;;;;;;;;;;5032360;28;20066;-70
2021/01/29 01:25:10;;;;;;;40.30;4.97;;;;;;;;;;5032394;28;21024;-70
2021/01/29 01:27:36;;;;;;;39.92;4.80;;;;;;;;;;5032240;28;20026;-70
2021/01/29 01:30:02;;;;;;;30.90;6.47;;;;;;;;;;5032484;28;20041;-70
2021/01/29 01:32:27;;;;;;;32.38;4.22;;;;;;;;;;5032746;28;20100;-69
2021/01/29 01:34:52;;;;;;;28.05;3.45;;;;;;;;;;5032180;28;20112;-69
2021/01/29 01:37:18;;;;;;;43.33;4.95;;;;;;;;;;5024766;28;20069;-70
2021/01/29 01:39:43;;;;;;;32.03;5.18;;;;;;;;;;5030627;28;20311;-70
2021/01/29 01:42:08;;;;;;;26.42;4.13;;;;;;;;;;5031093;28;20042;-70
2021/01/29 01:44:34;;;;;;;34.28;3.42;;;;;;;;;;5031865;28;20030;-70
2021/01/29 01:47:02;;;;;;;26.70;4.30;;;;;;;;;;5031538;28;20037;-69
2021/01/29 01:49:27;;;;;;;31.33;5.13;;;;;;;;;;5032054;28;20051;-69
2021/01/29 01:52:28;;;;;;;33.53;4.50;;;;;;;;;;5032037;28;20116;-69
2021/01/29 01:54:57;;;;;;;26.88;3.85;;;;;;;;;;5008848;28;20030;-70
2021/01/29 01:57:23;;;;;;;32.70;3.50;;;;;;;;;;5027297;28;20124;-70
2021/01/29 01:59:51;;;;;;;32.60;4.45;;;;;;;;;;5031079;28;20842;-69
2021/01/29 02:02:19;;;;;;;39.35;5.03;;;;;;;;;;5031858;28;20417;-70
2021/01/29 02:04:45;;;;;;;38.22;5.03;;;;;;;;;;5031279;28;20047;-70
2021/01/29 02:07:19;;;;;;;44.65;4.47;;;;;;;;;;5031602;28;20026;-70
2021/01/29 02:09:46;;;;;;;38.72;4.28;;;;;;;;;;5031452;28;20070;-70
2021/01/29 02:12:12;;;;;;;42.53;3.95;;;;;;;;;;5031677;28;20061;-69
2021/01/29 02:14:37;;;;;;;44.58;4.40;;;;;;;;;;5031681;28;20024;-70
2021/01/29 02:17:11;;;;;;;48.58;4.75;;;;;;;;;;5031549;28;20415;-70
2021/01/29 02:19:36;;;;;;;43.22;3.97;;;;;;;;;;5031471;28;20033;-69
2021/01/29 02:22:24;;;;;;;39.85;4.32;;;;;;;;;;5031810;28;20477;-70
2021/01/29 02:25:09;;;;;;;45.08;4.07;;;;;;;;;;5029754;28;20487;-69
2021/01/29 02:27:43;;;;;;;45.63;4.88;;;;;;;;;;5031642;28;20505;-70
2021/01/29 02:30:47;;;;;;;41.30;4.53;;;;;;;;;;5030944;28;20098;-70
2021/01/29 02:33:31;;;;;;;44.60;5.18;;;;;;;;;;5028486;28;20540;-70
2021/01/29 02:36:11;;;;;;;37.75;4.03;;;;;;;;;;5027780;28;20041;-70
2021/01/29 02:38:42;;;;;;;33.30;3.90;;;;;;;;;;5030945;28;20042;-70
2021/01/29 02:41:26;;;;;;;38.28;5.82;;;;;;;;;;5029996;28;20033;-70
2021/01/29 02:43:51;;;;;;;44.00;5.63;;;;;;;;;;5030510;28;20367;-70
2021/01/29 02:46:40;;;;;;;33.03;4.57;;;;;;;;;;5030236;28;20043;-70
2021/01/29 02:49:10;;;;;;;33.15;4.63;;;;;;;;;;5030933;28;20037;-70
2021/01/29 02:51:47;;;;;;;28.40;4.50;;;;;;;;;;5031301;28;20029;-70
2021/01/29 02:54:32;;;;;;;43.47;5.07;;;;;;;;;;5030875;28;20044;-69
2021/01/29 02:57:09;;;;;;;44.17;4.82;;;;;;;;;;5026053;28;20041;-69
2021/01/29 02:59:37;;;;;;;51.25;4.95;;;;;;;;;;5030413;28;20051;-70
2021/01/29 03:02:13;;;;;;;40.20;5.10;;;;;;;;;;5030362;28;20038;-70
2021/01/29 03:05:10;;;;;;;51.15;5.18;;;;;;;;;;5029579;28;20033;-70
2021/01/29 03:07:39;;;;;;;49.67;4.97;;;;;;;;;;5017868;28;20887;-70
2021/01/29 03:10:15;;;;;;;31.58;3.97;;;;;;;;;;5029921;28;20034;-69
2021/01/29 03:12:44;;;;;;;49.22;4.85;;;;;;;;;;5030484;28;20084;-70
2021/01/29 03:15:14;;;;;;;37.72;6.35;;;;;;;;;;5030361;28;20061;-70
2021/01/29 03:17:45;;;;;;;37.67;4.72;;;;;;;;;;5029804;28;20040;-70
2021/01/29 03:20:18;;;;;;;40.90;5.15;;;;;;;;;;5030274;28;20069;-70
2021/01/29 03:22:49;;;;;;;29.02;4.20;;;;;;;;;;5030203;28;20111;-70
2021/01/29 03:25:23;;;;;;;25.95;3.83;;;;;;;;;;5030237;28;20037;-70
2021/01/29 03:27:50;;;;;;;34.88;4.78;;;;;;;;;;5030127;28;20477;-70
2021/01/29 03:30:23;;;;;;;49.80;4.45;;;;;;;;;;5029866;28;20136;-70
2021/01/29 03:32:49;;;;;;;39.15;4.28;;;;;;;;;;5030658;28;20049;-70
2021/01/29 03:35:19;;;;;;;39.72;5.40;;;;;;;;;;5029397;28;20473;-71
2021/01/29 03:38:03;;;;;;;35.45;5.07;;;;;;;;;;5029424;28;20378;-70
2021/01/29 03:40:29;;;;;;;48.85;4.32;;;;;;;;;;5029530;28;20159;-69
2021/01/29 03:43:06;;;;;;;38.33;3.80;;;;;;;;;;5030439;28;20112;-69
2021/01/29 03:45:34;;;;;;;35.78;3.60;;;;;;;;;;5029853;28;20068;-69
2021/01/29 03:47:59;;;;;;;28.60;3.60;;;;;;;;;;5029169;28;20025;-70
2021/01/29 03:50:33;;;;;;;22.10;4.13;;;;;;;;;;5030379;28;20382;-70
2021/01/29 03:53:10;;;;;;;26.35;3.17;;;;;;;;;;5029460;28;20029;-69
2021/01/29 03:55:35;;;;;;;34.13;3.80;;;;;;;;;;5029376;28;20504;-70
2021/01/29 03:58:00;;;;;;;37.83;4.28;;;;;;;;;;5029191;28;20045;-69
2021/01/29 04:00:25;;;;;;;29.85;4.55;;;;;;;;;;5030032;28;20374;-70
2021/01/29 04:03:03;;;;;;;40.22;4.50;;;;;;;;;;5029529;28;20052;-70
2021/01/29 04:06:03;;;;;;;45.05;5.60;;;;;;;;;;5029921;28;20036;-70
2021/01/29 04:08:32;;;;;;;41.13;5.60;;;;;;;;;;5007698;28;20041;-70
2021/01/29 04:10:58;;;;;;;38.95;6.93;;;;;;;;;;5025305;28;20049;-70
2021/01/29 04:13:32;;;;;;;36.25;4.20;;;;;;;;;;5029684;28;20079;-69
2021/01/29 04:15:58;;;;;;;26.65;3.38;;;;;;;;;;5029393;28;20043;-69
2021/01/29 04:18:27;;;;;;;26.80;3.47;;;;;;;;;;5028981;28;20371;-70
2021/01/29 04:20:52;;;;;;;15.07;3.50;;;;;;;;;;5029010;28;20533;-70
2021/01/29 04:23:38;;;;;;;23.92;3.47;;;;;;;;;;5029248;28;20026;-70
2021/01/29 04:26:07;;;;;;;29.58;3.90;;;;;;;;;;5018262;28;20091;-70
2021/01/29 04:28:36;;;;;;;35.33;4.18;;;;;;;;;;5029665;28;20091;-70
2021/01/29 04:31:02;;;;;;;37.72;4.38;;;;;;;;;;5029851;28;20041;-70
2021/01/29 04:33:32;;;;;;;24.60;3.03;;;;;;;;;;5029459;28;20104;-70
2021/01/29 04:35:58;;;;;;;25.73;2.90;;;;;;;;;;5028695;28;20051;-70
2021/01/29 04:38:32;;;;;;;31.00;3.88;;;;;;;;;;5026450;28;20046;-69
2021/01/29 04:41:16;;;;;;;29.02;3.22;;;;;;;;;;5027742;28;20029;-69
2021/01/29 04:43:59;;;;;;;17.48;2.22;;;;;;;;;;5028687;28;20061;-69
2021/01/29 04:46:43;;;;;;;21.27;2.33;;;;;;;;;;5024343;28;20038;-69
2021/01/29 04:49:11;;;;;;;32.22;2.47;;;;;;;;;;5028301;28;20034;-69
2021/01/29 04:51:55;;;;;;;22.95;2.20;;;;;;;;;;5029313;28;20041;-70
2021/01/29 04:54:32;;;;;;;22.27;2.30;;;;;;;;;;5028755;28;20087;-69
2021/01/29 04:56:57;;;;;;;24.63;2.97;;;;;;;;;;5028859;28;20037;-70
2021/01/29 04:59:29;;;;;;;33.30;3.67;;;;;;;;;;5028634;28;20025;-69
2021/01/29 05:02:18;;;;;;;26.15;1.98;;;;;;;;;;5027605;28;20397;-70
2021/01/29 05:05:10;;;;;;;29.80;2.38;;;;;;;;;;5028716;28;20125;-69
2021/01/29 05:07:35;;;;;;;29.90;2.83;;;;;;;;;;5028928;28;20065;-70
2021/01/29 05:10:03;;;;;;;40.03;2.65;;;;;;;;;;5027869;28;20061;-70
2021/01/29 05:12:31;;;;;;;34.38;2.33;;;;;;;;;;5028574;28;20119;-70
2021/01/29 05:14:57;;;;;;;24.48;2.72;;;;;;;;;;5028889;28;20018;-70
2021/01/29 05:17:38;;;;;;;25.85;2.38;;;;;;;;;;5028186;28;20048;-69
2021/01/29 05:20:03;;;;;;;31.52;2.78;;;;;;;;;;5028307;28;20497;-70
2021/01/29 05:22:50;;;;;;;22.40;2.33;;;;;;;;;;5028683;28;20044;-69
2021/01/29 05:25:15;;;;;;;24.73;2.53;;;;;;;;;;5029401;28;20116;-69
2021/01/29 05:27:40;;;;;;;17.33;2.70;;;;;;;;;;5028770;28;20430;-69
2021/01/29 05:30:09;;;;;;;23.45;2.75;;;;;;;;;;5031766;28;20042;-69
2021/01/29 05:32:50;;;;;;;21.95;2.72;;;;;;;;;;5032007;28;20421;-69
2021/01/29 05:35:24;;;;;;;31.55;4.30;;;;;;;;;;5032163;28;20079;-70
2021/01/29 05:38:06;;;;;;;21.30;3.70;;;;;;;;;;5032728;28;20041;-69
2021/01/29 05:40:58;;;;;;;31.27;3.70;;;;;;;;;;5031624;28;20051;-69
2021/01/29 05:43:42;;;;;;;22.85;3.50;;;;;;;;;;5032398;28;20072;-68
2021/01/29 05:46:08;;;;;;;34.67;5.18;;;;;;;;;;5031710;28;20061;-69
2021/01/29 05:48:51;;;;;;;40.90;3.53;;;;;;;;;;5031734;28;20095;-69
2021/01/29 05:51:19;;;;;;;30.40;3.65;;;;;;;;;;5031595;28;20039;-69
2021/01/29 05:54:03;;;;;;;25.60;3.67;;;;;;;;;;5031744;28;20034;-69
2021/01/29 05:56:40;;;;;;;30.23;3.63;;;;;;;;;;5031564;28;20029;-69
2021/01/29 05:59:19;;;;;;;29.92;4.50;;;;;;;;;;5031096;28;20396;-69
2021/01/29 06:01:59;;;;;;;27.55;3.42;;;;;;;;;;5031905;28;20033;-69
2021/01/29 06:04:55;;;;;;;24.08;4.65;;;;;;;;;;5032190;28;20512;-69
2021/01/29 06:07:26;;;;;;;35.65;3.35;;;;;;;;;;5031441;28;20033;-69
2021/01/29 06:09:54;;;;;;;18.90;2.60;;;;;;;;;;5031560;28;20037;-70
2021/01/29 06:12:38;;;;;;;21.20;2.55;;;;;;;;;;5031030;28;20494;-70
2021/01/29 06:15:06;;;;;;;25.15;2.55;;;;;;;;;;5031505;28;20061;-69
2021/01/29 06:17:39;;;;;;;18.80;2.75;;;;;;;;;;5031327;28;20482;-69
2021/01/29 06:20:33;;;;;;;19.60;2.90;;;;;;;;;;5031258;28;20060;-69
2021/01/29 06:23:17;;;;;;;17.58;2.13;;;;;;;;;;5031793;28;20040;-70
2021/01/29 06:25:45;;;;;;;21.73;2.30;;;;;;;;;;5031555;28;20039;-69
2021/01/29 06:28:14;;;;;;;21.10;2.95;;;;;;;;;;5031270;28;20041;-69
2021/01/29 06:30:47;;;;;;;21.40;2.65;;;;;;;;;;5029533;28;20112;-70
2021/01/29 06:33:12;;;;;;;12.43;2.38;;;;;;;;;;5031391;28;20029;-69
2021/01/29 06:35:56;;;;;;;16.75;3.05;;;;;;;;;;5030604;28;20048;-69
2021/01/29 06:38:21;;;;;;;12.85;1.85;;;;;;;;;;5030724;28;20545;-69
2021/01/29 06:40:53;;;;;;;15.48;2.30;;;;;;;;;;5030260;28;20116;-69
2021/01/29 06:43:30;;;;;;;20.08;2.95;;;;;;;;;;5030821;28;20374;-69
2021/01/29 06:46:15;;;;;;;20.63;2.88;;;;;;;;;;5031006;28;20033;-69
2021/01/29 06:48:58;;;;;;;21.08;1.90;;;;;;;;;;5030923;28;20030;-69
2021/01/29 06:51:42;;;;;;;17.95;2.63;;;;;;;;;;5030753;28;20065;-69
2021/01/29 06:54:19;;;;;;;22.20;2.45;;;;;;;;;;5031388;28;20075;-70
2021/01/29 06:57:03;;;;;;;14.93;1.80;;;;;;;;;;5030750;28;20480;-69
2021/01/29 06:59:38;;;;;;;17.65;2.97;;;;;;;;;;5030238;28;20040;-69
2021/01/29 07:02:15;;;;;;;19.02;3.03;;;;;;;;;;5030626;28;20038;-69
2021/01/29 07:04:40;;;;;;;20.77;3.17;;;;;;;;;;5030823;28;20932;-69
2021/01/29 07:07:09;;;;;;;32.58;3.72;;;;;;;;;;5030518;28;20034;-69
2021/01/29 07:09:59;;;;;;;23.38;3.10;;;;;;;;;;5030484;28;20936;-69
2021/01/29 07:12:39;;;;;;;32.25;4.53;;;;;;;;;;5030025;28;20103;-70
2021/01/29 07:15:10;;;;;;;30.35;3.20;;;;;;;;;;5030399;28;20065;-69
2021/01/29 07:17:54;;;;;;;22.38;3.13;;;;;;;;;;5029932;28;20049;-70
2021/01/29 07:20:38;;;;;;;24.02;2.33;;;;;;;;;;5030138;28;20044;-69
2021/01/29 07:23:03;;;;;;;35.97;3.40;;;;;;;;;;5030040;28;20037;-70
2021/01/29 07:25:35;;;;;;;20.27;3.25;;;;;;;;;;5030345;28;20493;-69
2021/01/29 07:28:18;;;;;;;32.58;4.68;;;;;;;;;;5029609;28;20025;-70
2021/01/29 07:31:01;;;;;;;28.98;4.25;;;;;;;;;;5030009;28;20041;-70
2021/01/29 07:33:35;;;;;;;33.45;5.55;;;;;;;;;;5030115;28;20029;-69
2021/01/29 07:36:03;;;;;;;38.70;5.10;;;;;;;;;;5029525;28;20382;-69
2021/01/29 07:38:31;;;;;;;41.60;5.15;;;;;;;;;;5028454;28;20041;-69
2021/01/29 07:41:06;;;;;;;43.05;4.55;;;;;;;;;;5029334;28;20459;-69
2021/01/29 07:43:46;;;;;;;40.72;3.78;;;;;;;;;;5029771;28;20490;-70
2021/01/29 07:46:32;;;;;;;39.15;3.30;;;;;;;;;;5029495;28;20116;-69
2021/01/29 07:49:16;;;;;;;45.88;3.03;;;;;;;;;;5029561;28;20037;-69
2021/01/29 07:51:41;;;;;;;30.20;4.75;;;;;;;;;;5029144;28;20048;-70
2021/01/29 07:54:25;;;;;;;64.13;4.72;;;;;;;;;;5029642;28;20033;-69
2021/01/29 07:57:09;;;;;;;59.35;4.85;;;;;;;;;;5030115;28;20119;-69
2021/01/29 07:59:52;;;;;;;41.70;3.75;;;;;;;;;;5029613;28;20029;-70
2021/01/29 08:02:36;;;;;;;28.08;3.33;;;;;;;;;;5029597;28;20040;-69
2021/01/29 08:05:20;;;;;;;28.63;2.97;;;;;;;;;;5029318;28;20087;-69
2021/01/29 08:07:47;;;;;;;29.38;3.28;;;;;;;;;;5029471;28;20033;-69
2021/01/29 08:10:30;;;;;;;35.60;3.60;;;;;;;;;;5029580;28;20030;-69
2021/01/29 08:13:19;;;;;;;31.50;3.72;;;;;;;;;;5029358;28;20053;-69
2021/01/29 08:15:52;;;;;;;29.40;4.03;;;;;;;;;;5018949;28;20124;-69
2021/01/29 08:18:24;;;;;;;27.95;4.05;;;;;;;;;;5028898;28;20064;-69
2021/01/29 08:21:07;;;;;;;40.90;4.35;;;;;;;;;;5029058;28;20474;-69
2021/01/29 08:23:40;;;;;;;21.58;2.75;;;;;;;;;;5029342;28;20033;-69
2021/01/29 08:26:06;;;;;;;40.15;4.25;;;;;;;;;;5029383;28;20033;-69
2021/01/29 08:28:50;;;;;;;43.50;3.45;;;;;;;;;;5029859;28;20536;-70
2021/01/29 08:31:38;;;;;;;90.68;4.28;;;;;;;;;;5029190;28;20038;-69
2021/01/29 08:34:06;;;;;;;178.10;6.25;;;;;;;;;;5030011;28;20406;-69
2021/01/29 08:36:34;;;;;;;101.38;4.43;;;;;;;;;;5020589;28;21502;-69
2021/01/29 08:39:15;;;;;;;77.07;3.75;;;;;;;;;;5027279;28;20038;-69
2021/01/29 08:41:59;;;;;;;49.00;3.05;;;;;;;;;;5026078;28;20045;-69
2021/01/29 08:44:24;;;;;;;11.75;2.15;;;;;;;;;;5026434;28;20036;-69
2021/01/29 08:47:08;;;;;;;16.00;2.53;;;;;;;;;;5025703;28;20041;-69
2021/01/29 08:49:53;;;;;;;13.10;1.88;;;;;;;;;;5027044;28;20033;-70
2021/01/29 08:52:19;;;;;;;14.57;2.70;;;;;;;;;;5025472;28;20490;-69
2021/01/29 08:54:44;;;;;;;7.47;1.80;;;;;;;;;;5026959;28;20040;-69
2021/01/29 08:57:21;;;;;;;6.45;1.30;;;;;;;;;;5027099;28;20386;-70
2021/01/29 08:59:47;;;;;;;13.20;1.80;;;;;;;;;;5026435;28;20034;-69
2021/01/29 09:02:15;;;;;;;12.20;2.45;;;;;;;;;;5027665;28;20041;-70
2021/01/29 09:04:50;;;;;;;21.73;2.25;;;;;;;;;;5030078;28;20075;-69
2021/01/29 09:07:21;;;;;;;12.82;2.20;;;;;;;;;;5028849;28;20029;-69
2021/01/29 09:09:47;;;;;;;18.40;1.80;;;;;;;;;;5032249;28;20065;-69
2021/01/29 09:12:19;;;;;;;11.27;1.80;;;;;;;;;;5031921;28;20054;-69
2021/01/29 09:14:55;;;;;;;22.35;2.42;;;;;;;;;;5032980;28;20030;-69
2021/01/29 09:17:23;;;;;;;23.55;2.50;;;;;;;;;;5026217;28;20060;-69
2021/01/29 09:19:59;;;;;;;20.75;1.85;;;;;;;;;;5032046;28;20470;-70
2021/01/29 09:22:28;;;;;;;18.67;2.25;;;;;;;;;;5031432;28;20041;-69
2021/01/29 09:24:56;;;;;;;14.38;2.13;;;;;;;;;;5031820;28;20394;-69
2021/01/29 09:27:41;;;;;;;19.40;2.60;;;;;;;;;;5021504;28;21453;-69
2021/01/29 09:30:12;;;;;;;16.23;2.33;;;;;;;;;;5027359;28;20029;-70
2021/01/29 09:32:52;;;;;;;21.95;3.80;;;;;;;;;;5029618;28;20037;-70
2021/01/29 09:35:26;;;;;;;15.43;2.67;;;;;;;;;;5030151;28;20033;-70
2021/01/29 09:37:53;;;;;;;19.38;6.32;;;;;;;;;;5026008;28;20099;-70
2021/01/29 09:40:25;;;;;;;24.20;3.75;;;;;;;;;;5029568;28;20037;-69
2021/01/29 09:43:04;;;;;;;12.43;2.80;;;;;;;;;;5029411;28;20091;-69
2021/01/29 09:45:29;;;;;;;15.77;2.45;;;;;;;;;;5029919;28;20029;-69
2021/01/29 09:47:57;;;;;;;15.32;2.67;;;;;;;;;;5029934;28;20091;-69
2021/01/29 09:50:24;;;;;;;14.85;2.30;;;;;;;;;;5031319;28;20022;-70
2021/01/29 09:53:08;;;;;;;7.38;1.73;;;;;;;;;;5030026;28;20055;-69
2021/01/29 09:55:51;;;;;;;11.35;2.45;;;;;;;;;;5031334;28;20075;-70
2021/01/29 09:58:31;;;;;;;10.77;1.60;;;;;;;;;;5031017;28;20092;-70
2021/01/29 10:01:03;;;;;;;5.82;1.65;;;;;;;;;;5028790;28;20033;-70
2021/01/29 10:03:31;;;;;;;3.30;0.77;;;;;;;;;;5031745;28;20033;-70
2021/01/29 10:06:16;;;;;;;6.35;1.30;;;;;;;;;;5031315;28;20044;-70
2021/01/29 10:08:44;;;;;;;2.05;1.10;;;;;;;;;;5031492;28;20040;-70
2021/01/29 10:11:24;;;;;;;6.20;0.77;;;;;;;;;;5031009;28;20071;-70
2021/01/29 10:13:52;;;;;;;5.25;0.77;;;;;;;;;;5024314;28;20478;-70
2021/01/29 10:16:24;;;;;;;8.10;2.00;;;;;;;;;;5030509;28;20107;-69
2021/01/29 10:18:56;;;;;;;4.80;1.20;;;;;;;;;;5030665;28;20025;-69
2021/01/29 10:21:26;;;;;;;5.10;1.58;;;;;;;;;;5028847;28;20037;-70
2021/01/29 10:23:59;;;;;;;4.13;1.10;;;;;;;;;;5030283;28;20028;-70
2021/01/29 10:26:27;;;;;;;5.43;0.93;;;;;;;;;;5026874;28;20045;-69
2021/01/29 10:28:55;;;;;;;5.32;1.58;;;;;;;;;;5030174;28;20018;-70
2021/01/29 10:31:22;;;;;;;4.43;0.55;;;;;;;;;;5027687;28;20037;-70
2021/01/29 10:33:49;;;;;;;3.42;0.75;;;;;;;;;;5030337;28;20033;-70
2021/01/29 10:36:23;;;;;;;2.70;0.70;;;;;;;;;;5028165;28;20026;-70
2021/01/29 10:38:59;;;;;;;2.97;0.70;;;;;;;;;;5026672;28;20037;-69
2021/01/29 10:41:48;;;;;;;2.50;0.70;;;;;;;;;;5027114;28;20112;-70
2021/01/29 10:44:16;;;;;;;3.10;0.73;;;;;;;;;;5029958;28;20040;-69
2021/01/29 10:47:00;;;;;;;2.55;0.57;;;;;;;;;;5029186;28;20029;-69
2021/01/29 10:49:25;;;;;;;2.42;0.80;;;;;;;;;;5030478;28;20474;-70
2021/01/29 10:51:53;;;;;;;5.05;0.80;;;;;;;;;;5030913;28;20078;-70
2021/01/29 10:54:19;;;;;;;4.13;0.93;;;;;;;;;;5029369;28;20033;-70
2021/01/29 10:56:47;;;;;;;3.40;1.65;;;;;;;;;;5030496;28;20037;-69
2021/01/29 10:59:33;;;;;;;4.15;1.05;;;;;;;;;;5030460;28;20481;-70
2021/01/29 11:02:01;;;;;;;4.50;1.38;;;;;;;;;;5023436;28;20069;-70
2021/01/29 11:04:26;;;;;;;1.73;0.60;;;;;;;;;;5029934;28;20386;-70
2021/01/29 11:06:52;;;;;;;2.28;0.70;;;;;;;;;;5030146;28;20025;-70
2021/01/29 11:09:20;;;;;;;3.35;0.93;;;;;;;;;;5030442;28;20029;-69
2021/01/29 11:11:49;;;;;;;5.13;0.60;;;;;;;;;;5030274;28;20433;-70
2021/01/29 11:14:27;;;;;;;6.03;1.05;;;;;;;;;;5030346;28;20113;-70
2021/01/29 11:16:53;;;;;;;2.88;0.75;;;;;;;;;;5029342;28;20040;-69
2021/01/29 11:19:20;;;;;;;3.53;0.60;;;;;;;;;;5028855;28;20033;-70
2021/01/29 11:22:04;;;;;;;2.33;0.57;;;;;;;;;;5030891;28;20022;-70
2021/01/29 11:24:38;;;;;;;6.03;0.80;;;;;;;;;;5029073;28;20497;-70
2021/01/29 11:27:09;;;;;;;3.97;1.10;;;;;;;;;;5028063;28;20482;-71
2021/01/29 11:29:43;;;;;;;5.68;1.20;;;;;;;;;;5029650;28;20112;-70
2021/01/29 11:32:11;;;;;;;5.65;1.40;;;;;;;;;;5030403;28;20038;-71
2021/01/29 11:34:36;;;;;;;5.97;1.25;;;;;;;;;;5030413;28;20104;-70
2021/01/29 11:37:09;;;;;;;7.20;1.23;;;;;;;;;;5030130;28;20124;-71
2021/01/29 11:39:40;;;;;;;8.60;1.55;;;;;;;;;;5030717;28;20115;-71
2021/01/29 11:42:24;;;;;;;13.77;1.48;;;;;;;;;;5029847;28;20025;-71
2021/01/29 11:45:06;;;;;;;5.88;1.25;;;;;;;;;;5030012;28;20030;-71
2021/01/29 11:47:32;;;;;;;8.55;1.35;;;;;;;;;;5030186;28;20040;-70
2021/01/29 11:50:18;;;;;;;9.93;1.10;;;;;;;;;;5030705;28;20041;-70
2021/01/29 11:52:45;;;;;;;3.78;1.05;;;;;;;;;;5026135;28;20183;-71
2021/01/29 11:55:11;;;;;;;4.20;1.13;;;;;;;;;;5029806;28;20382;-70
2021/01/29 11:57:55;;;;;;;7.90;1.63;;;;;;;;;;5029648;28;20051;-70
2021/01/29 12:00:26;;;;;;;6.65;1.20;;;;;;;;;;5026834;28;20436;-70
2021/01/29 12:03:07;;;;;;;7.88;1.95;;;;;;;;;;5028025;28;20184;-71
2021/01/29 12:05:41;;;;;;;6.35;1.27;;;;;;;;;;5029872;28;20037;-70
2021/01/29 12:08:06;;;;;;;4.20;1.25;;;;;;;;;;5021768;28;20041;-70
2021/01/29 12:10:31;;;;;;;5.85;1.10;;;;;;;;;;5028524;28;20075;-70
2021/01/29 12:13:00;;;;;;;8.30;3.03;;;;;;;;;;5028495;28;20091;-71
2021/01/29 12:15:44;;;;;;;4.68;0.80;;;;;;;;;;5025807;28;20041;-70
2021/01/29 12:18:11;;;;;;;2.17;0.50;;;;;;;;;;5029502;28;20056;-71
2021/01/29 12:20:38;;;;;;;2.10;0.80;;;;;;;;;;5027691;28;20127;-70
2021/01/29 12:23:22;;;;;;;5.40;0.70;;;;;;;;;;5030529;28;20102;-70
2021/01/29 12:25:51;;;;;;;3.42;0.68;;;;;;;;;;5029615;28;20037;-70
2021/01/29 12:28:34;;;;;;;2.13;0.70;;;;;;;;;;5025429;28;20029;-71
2021/01/29 12:31:12;;;;;;;1.40;0.35;;;;;;;;;;5029353;28;20448;-71
2021/01/29 12:34:03;;;;;;;1.83;0.77;;;;;;;;;;5021686;28;20060;-70
2021/01/29 12:36:31;;;;;;;3.47;0.60;;;;;;;;;;5025781;28;20395;-69
2021/01/29 12:39:28;;;;;;;1.77;0.65;;;;;;;;;;5029600;28;20061;-70
2021/01/29 12:41:56;;;;;;;2.13;0.60;;;;;;;;;;5017564;28;20045;-70
2021/01/29 12:44:36;;;;;;;1.13;0.38;;;;;;;;;;5033545;28;20055;-70
2021/01/29 12:47:07;;;;;;;1.23;0.50;;;;;;;;;;5033269;28;20042;-70
2021/01/29 12:49:33;;;;;;;1.55;0.40;;;;;;;;;;5033696;28;20033;-70
2021/01/29 12:52:01;;;;;;;3.10;0.68;;;;;;;;;;5032906;28;20017;-70
2021/01/29 12:54:35;;;;;;;1.30;0.30;;;;;;;;;;5033056;28;20041;-70
2021/01/29 12:57:04;;;;;;;0.63;0.28;;;;;;;;;;5032769;28;20033;-70
2021/01/29 12:59:34;;;;;;;0.65;0.30;;;;;;;;;;5033049;28;20390;-70
2021/01/29 13:02:09;;;;;;;3.35;0.30;;;;;;;;;;5033395;28;20034;-71
2021/01/29 13:04:34;;;;;;;4.10;0.80;;;;;;;;;;5033154;28;20474;-70
2021/01/29 13:07:02;;;;;;;2.42;0.40;;;;;;;;;;5032745;28;20036;-71
2021/01/29 13:09:28;;;;;;;2.17;0.50;;;;;;;;;;5033341;28;20091;-70
2021/01/29 13:11:56;;;;;;;2.90;0.60;;;;;;;;;;5032118;28;20494;-70
2021/01/29 13:14:23;;;;;;;3.38;0.98;;;;;;;;;;5033208;28;20053;-70
2021/01/29 13:16:54;;;;;;;2.58;0.80;;;;;;;;;;5032812;28;20033;-69
2021/01/29 13:19:24;;;;;;;4.20;1.80;;;;;;;;;;5033072;28;20083;-69
2021/01/29 13:21:50;;;;;;;3.45;1.63;;;;;;;;;;5033203;28;20509;-70
2021/01/29 13:24:18;;;;;;;3.60;1.55;;;;;;;;;;5033508;28;20049;-71
2021/01/29 13:26:44;;;;;;;4.32;1.13;;;;;;;;;;5032249;28;20041;-70
2021/01/29 13:29:24;;;;;;;3.53;0.80;;;;;;;;;;5032804;28;20033;-71
2021/01/29 13:31:50;;;;;;;7.05;0.88;;;;;;;;;;5033081;28;20079;-70
2021/01/29 13:34:20;;;;;;;2.55;0.60;;;;;;;;;;5024030;28;20075;-71
2021/01/29 13:36:57;;;;;;;3.53;0.60;;;;;;;;;;5014249;28;20478;-71
2021/01/29 13:39:24;;;;;;;3.28;1.08;;;;;;;;;;5032191;28;20072;-71
2021/01/29 13:41:51;;;;;;;6.38;4.07;;;;;;;;;;5030656;28;20044;-70
2021/01/29 13:44:20;;;;;;;2.85;1.27;;;;;;;;;;5032007;28;20064;-71
2021/01/29 13:46:49;;;;;;;1.65;0.70;;;;;;;;;;5030736;28;20033;-71
2021/01/29 13:49:14;;;;;;;2.25;0.60;;;;;;;;;;5029704;28;20440;-71
2021/01/29 13:51:40;;;;;;;0.68;0.40;;;;;;;;;;5031196;28;20108;-71
2021/01/29 13:54:25;;;;;;;2.90;0.70;;;;;;;;;;5031883;28;20835;-70
2021/01/29 13:56:51;;;;;;;1.65;0.38;;;;;;;;;;5030956;28;20611;-70
2021/01/29 13:59:17;;;;;;;1.25;0.60;;;;;;;;;;5029790;28;20033;-70
2021/01/29 14:01:50;;;;;;;1.00;0.50;;;;;;;;;;5030028;28;20513;-71
2021/01/29 14:04:18;;;;;;;1.02;0.28;;;;;;;;;;5032482;28;20021;-71
2021/01/29 14:06:44;;;;;;;1.35;0.50;;;;;;;;;;5031808;28;20037;-70
2021/01/29 14:09:12;;;;;;;1.13;0.60;;;;;;;;;;5032320;28;20037;-70
2021/01/29 14:11:38;;;;;;;1.10;0.35;;;;;;;;;;5031645;28;20045;-70
2021/01/29 14:14:21;;;;;;;1.10;0.30;;;;;;;;;;5032296;28;20052;-70
2021/01/29 14:16:55;;;;;;;1.05;0.50;;;;;;;;;;5022401;28;20037;-70
2021/01/29 14:19:25;;;;;;;1.75;0.40;;;;;;;;;;5030953;28;20073;-71
2021/01/29 14:21:55;;;;;;;2.65;0.40;;;;;;;;;;5031134;28;20079;-70
2021/01/29 14:24:36;;;;;;;1.05;0.40;;;;;;;;;;5030975;28;20025;-70
2021/01/29 14:27:10;;;;;;;2.40;0.98;;;;;;;;;;5031514;28;20029;-70
2021/01/29 14:29:36;;;;;;;24.60;11.35;;;;;;;;;;5031882;28;20033;-71
2021/01/29 14:32:20;;;;;;;4.78;1.88;;;;;;;;;;5031735;28;20033;-71
2021/01/29 14:34:45;;;;;;;4.93;1.98;;;;;;;;;;5030270;28;20434;-70
2021/01/29 14:37:16;;;;;;;7.97;3.13;;;;;;;;;;5030503;28;20091;-70
2021/01/29 14:39:47;;;;;;;5.53;3.67;;;;;;;;;;5030509;28;20021;-70
2021/01/29 14:42:15;;;;;;;2.05;0.70;;;;;;;;;;5027647;28;20120;-70
2021/01/29 14:45:13;;;;;;;4.60;2.05;;;;;;;;;;5030188;28;20034;-70
2021/01/29 14:47:50;;;;;;;13.40;5.88;;;;;;;;;;5007595;28;20041;-71
2021/01/29 14:50:15;;;;;;;13.20;6.35;;;;;;;;;;5030620;28;20393;-70
2021/01/29 14:52:43;;;;;;;11.63;5.63;;;;;;;;;;5030954;28;20042;-70
2021/01/29 14:55:10;;;;;;;13.60;6.00;;;;;;;;;;5030421;28;20583;-70
2021/01/29 14:57:38;;;;;;;4.90;1.90;;;;;;;;;;5030115;28;20080;-71
2021/01/29 15:00:06;;;;;;;14.98;6.75;;;;;;;;;;5030245;28;20503;-70
2021/01/29 15:02:39;;;;;;;23.65;12.85;;;;;;;;;;5030440;28;20092;-70
2021/01/29 15:05:06;;;;;;;15.63;6.28;;;;;;;;;;5027839;28;20041;-70